sensor_id;sensor_type;location;lat;lon;timestamp;pressure;altitude;pressure_sealevel;temperature;humidity
59170;BME280;52474;52.236;5.114;2022-11-04T00:01:30;100036.91;;;10.19;100.00
59170;BME280;52474;52.236;5.114;2022-11-04T00:03:56;100042.38;;;10.17;100.00
59170;BME280;52474;52.236;5.114;2022-11-04T00:06:22;100058.50;;;10.24;100.00
59170;BME280;52474;52.236;5.114;2022-11-04T00:08:53;100037.94;;;10.08;100.00
59170;BME280;52474;52.236;5.114;2022-11-04T00:11:19;100060.19;;;10.15;100.00
59170;BME280;52474;52.236;5.114;2022-11-04T00:14:05;100055.66;;;10.07;100.00
59170;BME280;52474;52.236;5.114;2022-11-04T00:16:32;100057.06;;;10.02;100.00
59170;BME280;52474;52.236;5.114;2022-11-04T00:19:16;100070.53;;;10.08;100.00
59170;BME280;52474;52.236;5.114;2022-11-04T00:21:42;100061.81;;;9.98;100.00
59170;BME280;52474;52.236;5.114;2022-11-04T00:24:27;100068.09;;;9.97;100.00
59170;BME280;52474;52.236;5.114;2022-11-04T00:27:13;100087.00;;;10.02;100.00
59170;BME280;52474;52.236;5.114;2022-11-04T00:29:57;100079.41;;;9.89;100.00
59170;BME280;52474;52.236;5.114;2022-11-04T00:32:23;100096.50;;;9.95;100.00
59170;BME280;52474;52.236;5.114;2022-11-04T00:35:09;100102.50;;;9.87;100.00
59170;BME280;52474;52.236;5.114;2022-11-04T00:37:36;100100.81;;;9.86;100.00
59170;BME280;52474;52.236;5.114;2022-11-04T00:40:03;100094.59;;;9.78;100.00
59170;BME280;52474;52.236;5.114;2022-11-04T00:42:28;100113.91;;;9.88;100.00
59170;BME280;52474;52.236;5.114;2022-11-04T00:44:54;100096.25;;;9.79;100.00
59170;BME280;52474;52.236;5.114;2022-11-04T00:47:20;100072.25;;;9.62;100.00
59170;BME280;52474;52.236;5.114;2022-11-04T00:49:46;100126.53;;;9.94;100.00
59170;BME280;52474;52.236;5.114;2022-11-04T00:52:11;100113.66;;;9.81;100.00
59170;BME280;52474;52.236;5.114;2022-11-04T00:54:37;100133.13;;;9.90;100.00
59170;BME280;52474;52.236;5.114;2022-11-04T00:57:03;100116.16;;;9.83;100.00
59170;BME280;52474;52.236;5.114;2022-11-04T00:59:28;100133.66;;;9.94;100.00
59170;BME280;52474;52.236;5.114;2022-11-04T01:01:54;100126.44;;;9.86;100.00
59170;BME280;52474;52.236;5.114;2022-11-04T01:04:21;100147.31;;;9.89;100.00
59170;BME280;52474;52.236;5.114;2022-11-04T01:06:46;100146.91;;;9.84;100.00
59170;BME280;52474;52.236;5.114;2022-11-04T01:09:13;100143.72;;;9.80;100.00
59170;BME280;52474;52.236;5.114;2022-11-04T01:11:39;100145.56;;;9.70;100.00
59170;BME280;52474;52.236;5.114;2022-11-04T01:14:04;100164.91;;;9.71;100.00
59170;BME280;52474;52.236;5.114;2022-11-04T01:16:30;100169.50;;;9.68;100.00
59170;BME280;52474;52.236;5.114;2022-11-04T01:18:56;100176.19;;;9.63;100.00
59170;BME280;52474;52.236;5.114;2022-11-04T01:21:22;100180.91;;;9.59;100.00
59170;BME280;52474;52.236;5.114;2022-11-04T01:23:47;100184.41;;;9.60;100.00
59170;BME280;52474;52.236;5.114;2022-11-04T01:26:18;100179.25;;;9.58;100.00
59170;BME280;52474;52.236;5.114;2022-11-04T01:28:45;100186.06;;;9.61;100.00
59170;BME280;52474;52.236;5.114;2022-11-04T01:31:16;100182.03;;;9.57;100.00
59170;BME280;52474;52.236;5.114;2022-11-04T01:33:43;100182.59;;;9.51;100.00
59170;BME280;52474;52.236;5.114;2022-11-04T01:36:09;100204.69;;;9.59;100.00
59170;BME280;52474;52.236;5.114;2022-11-04T01:38:35;100178.03;;;9.43;100.00
59170;BME280;52474;52.236;5.114;2022-11-04T01:41:02;100185.66;;;9.46;100.00
59170;BME280;52474;52.236;5.114;2022-11-04T01:43:53;100205.69;;;9.58;100.00
59170;BME280;52474;52.236;5.114;2022-11-04T01:46:44;100195.00;;;9.50;100.00
59170;BME280;52474;52.236;5.114;2022-11-04T01:51:47;100209.84;;;9.61;100.00
59170;BME280;52474;52.236;5.114;2022-11-04T01:54:14;100230.59;;;9.56;100.00
59170;BME280;52474;52.236;5.114;2022-11-04T01:56:41;100209.56;;;9.44;100.00
59170;BME280;52474;52.236;5.114;2022-11-04T01:59:17;100201.50;;;9.27;100.00
59170;BME280;52474;52.236;5.114;2022-11-04T02:01:45;100242.13;;;9.45;100.00
59170;BME280;52474;52.236;5.114;2022-11-04T02:04:12;100240.59;;;9.42;100.00
59170;BME280;52474;52.236;5.114;2022-11-04T02:06:52;100222.94;;;9.23;100.00
59170;BME280;52474;52.236;5.114;2022-11-04T02:09:19;100242.13;;;9.26;100.00
59170;BME280;52474;52.236;5.114;2022-11-04T02:11:46;100234.59;;;9.11;100.00
59170;BME280;52474;52.236;5.114;2022-11-04T02:14:30;100246.13;;;9.10;100.00
59170;BME280;52474;52.236;5.114;2022-11-04T02:19:54;100242.03;;;8.87;100.00
59170;BME280;52474;52.236;5.114;2022-11-04T02:30:47;100267.50;;;8.57;100.00
59170;BME280;52474;52.236;5.114;2022-11-04T02:33:45;100273.88;;;8.54;100.00
59170;BME280;52474;52.236;5.114;2022-11-04T02:36:46;100274.94;;;8.42;100.00
59170;BME280;52474;52.236;5.114;2022-11-04T02:44:45;100297.25;;;8.59;100.00
59170;BME280;52474;52.236;5.114;2022-11-04T02:47:25;100289.19;;;8.60;100.00
59170;BME280;52474;52.236;5.114;2022-11-04T02:52:47;100266.34;;;8.50;100.00
59170;BME280;52474;52.236;5.114;2022-11-04T02:55:24;100285.97;;;8.57;100.00
59170;BME280;52474;52.236;5.114;2022-11-04T02:57:55;100271.91;;;8.47;100.00
59170;BME280;52474;52.236;5.114;2022-11-04T03:00:21;100280.66;;;8.47;100.00
59170;BME280;52474;52.236;5.114;2022-11-04T03:02:55;100281.59;;;8.46;100.00
59170;BME280;52474;52.236;5.114;2022-11-04T03:05:27;100281.88;;;8.43;100.00
59170;BME280;52474;52.236;5.114;2022-11-04T03:07:58;100288.25;;;8.41;100.00
59170;BME280;52474;52.236;5.114;2022-11-04T03:10:37;100259.84;;;8.12;100.00
59170;BME280;52474;52.236;5.114;2022-11-04T03:13:21;100266.44;;;8.17;100.00
59170;BME280;52474;52.236;5.114;2022-11-04T03:15:54;100270.03;;;8.16;100.00
59170;BME280;52474;52.236;5.114;2022-11-04T03:20:55;100294.59;;;8.17;100.00
59170;BME280;52474;52.236;5.114;2022-11-04T03:23:22;100301.69;;;8.16;100.00
59170;BME280;52474;52.236;5.114;2022-11-04T03:25:51;100301.81;;;8.15;100.00
59170;BME280;52474;52.236;5.114;2022-11-04T03:28:45;100298.25;;;8.05;100.00
59170;BME280;52474;52.236;5.114;2022-11-04T03:31:22;100308.03;;;8.14;100.00
59170;BME280;52474;52.236;5.114;2022-11-04T03:33:51;100317.66;;;8.15;100.00
59170;BME280;52474;52.236;5.114;2022-11-04T03:36:21;100313.91;;;8.17;100.00
59170;BME280;52474;52.236;5.114;2022-11-04T03:38:49;100324.31;;;8.19;100.00
59170;BME280;52474;52.236;5.114;2022-11-04T03:41:22;100318.47;;;8.15;100.00
59170;BME280;52474;52.236;5.114;2022-11-04T03:43:52;100304.84;;;8.10;100.00
59170;BME280;52474;52.236;5.114;2022-11-04T03:46:18;100331.34;;;8.30;100.00
59170;BME280;52474;52.236;5.114;2022-11-04T03:48:43;100325.38;;;8.28;100.00
59170;BME280;52474;52.236;5.114;2022-11-04T03:51:11;100331.34;;;8.30;100.00
59170;BME280;52474;52.236;5.114;2022-11-04T03:53:37;100327.41;;;8.24;100.00
59170;BME280;52474;52.236;5.114;2022-11-04T04:02:14;100317.66;;;8.15;100.00
59170;BME280;52474;52.236;5.114;2022-11-04T04:05:02;100341.56;;;8.23;100.00
59170;BME280;52474;52.236;5.114;2022-11-04T04:07:40;100345.56;;;8.17;100.00
59170;BME280;52474;52.236;5.114;2022-11-04T04:10:12;100341.94;;;8.18;100.00
59170;BME280;52474;52.236;5.114;2022-11-04T04:13:01;100341.63;;;8.12;100.00
59170;BME280;52474;52.236;5.114;2022-11-04T04:15:39;100323.50;;;7.98;100.00
59170;BME280;52474;52.236;5.114;2022-11-04T04:18:10;100339.75;;;8.03;100.00
59170;BME280;52474;52.236;5.114;2022-11-04T04:20:39;100358.41;;;8.11;100.00
59170;BME280;52474;52.236;5.114;2022-11-04T04:23:09;100362.72;;;8.12;100.00
59170;BME280;52474;52.236;5.114;2022-11-04T04:25:56;100361.81;;;8.02;100.00
59170;BME280;52474;52.236;5.114;2022-11-04T04:28:44;100365.78;;;7.96;100.00
59170;BME280;52474;52.236;5.114;2022-11-04T04:31:13;100352.59;;;7.96;100.00
59170;BME280;52474;52.236;5.114;2022-11-04T04:34:00;100380.34;;;8.11;100.00
59170;BME280;52474;52.236;5.114;2022-11-04T04:36:26;100389.44;;;8.18;100.00
59170;BME280;52474;52.236;5.114;2022-11-04T04:38:53;100378.31;;;8.15;100.00
59170;BME280;52474;52.236;5.114;2022-11-04T04:41:37;100378.16;;;8.16;100.00
59170;BME280;52474;52.236;5.114;2022-11-04T04:44:22;100371.34;;;8.14;100.00
59170;BME280;52474;52.236;5.114;2022-11-04T04:47:08;100364.41;;;8.13;100.00
59170;BME280;52474;52.236;5.114;2022-11-04T04:49:35;100386.03;;;8.28;100.00
59170;BME280;52474;52.236;5.114;2022-11-04T04:52:03;100384.22;;;8.28;100.00
59170;BME280;52474;52.236;5.114;2022-11-04T04:54:31;100395.75;;;8.27;100.00
59170;BME280;52474;52.236;5.114;2022-11-04T04:56:57;100393.81;;;8.29;100.00
59170;BME280;52474;52.236;5.114;2022-11-04T04:59:22;100391.56;;;8.25;100.00
59170;BME280;52474;52.236;5.114;2022-11-04T05:01:48;100394.78;;;8.28;100.00
59170;BME280;52474;52.236;5.114;2022-11-04T05:04:14;100407.59;;;8.33;100.00
59170;BME280;52474;52.236;5.114;2022-11-04T05:06:40;100408.88;;;8.38;100.00
59170;BME280;52474;52.236;5.114;2022-11-04T05:09:05;100410.97;;;8.35;100.00
59170;BME280;52474;52.236;5.114;2022-11-04T05:11:31;100416.56;;;8.42;100.00
59170;BME280;52474;52.236;5.114;2022-11-04T05:13:57;100407.06;;;8.39;100.00
59170;BME280;52474;52.236;5.114;2022-11-04T05:16:23;100414.53;;;8.45;100.00
59170;BME280;52474;52.236;5.114;2022-11-04T05:18:50;100405.19;;;8.41;100.00
59170;BME280;52474;52.236;5.114;2022-11-04T05:21:16;100408.66;;;8.42;100.00
59170;BME280;52474;52.236;5.114;2022-11-04T05:23:42;100411.28;;;8.42;100.00
59170;BME280;52474;52.236;5.114;2022-11-04T05:26:08;100421.84;;;8.42;100.00
59170;BME280;52474;52.236;5.114;2022-11-04T05:28:34;100409.16;;;8.35;100.00
59170;BME280;52474;52.236;5.114;2022-11-04T05:31:04;100419.34;;;8.40;100.00
59170;BME280;52474;52.236;5.114;2022-11-04T05:33:30;100417.31;;;8.32;100.00
59170;BME280;52474;52.236;5.114;2022-11-04T05:36:07;100426.44;;;8.28;100.00
59170;BME280;52474;52.236;5.114;2022-11-04T05:38:33;100417.50;;;8.20;100.00
59170;BME280;52474;52.236;5.114;2022-11-04T05:40:59;100428.16;;;8.18;100.00
59170;BME280;52474;52.236;5.114;2022-11-04T05:43:24;100437.53;;;8.11;100.00
59170;BME280;52474;52.236;5.114;2022-11-04T05:45:50;100443.53;;;8.13;100.00
59170;BME280;52474;52.236;5.114;2022-11-04T05:48:16;100425.34;;;7.99;100.00
59170;BME280;52474;52.236;5.114;2022-11-04T05:50:41;100443.09;;;7.96;100.00
59170;BME280;52474;52.236;5.114;2022-11-04T05:53:07;100423.72;;;7.75;100.00
59170;BME280;52474;52.236;5.114;2022-11-04T05:55:33;100458.72;;;7.88;100.00
59170;BME280;52474;52.236;5.114;2022-11-04T05:57:59;100450.59;;;7.80;100.00
59170;BME280;52474;52.236;5.114;2022-11-04T06:00:26;100454.06;;;7.69;100.00
59170;BME280;52474;52.236;5.114;2022-11-04T06:02:53;100457.31;;;7.73;100.00
59170;BME280;52474;52.236;5.114;2022-11-04T06:05:19;100455.03;;;7.68;100.00
59170;BME280;52474;52.236;5.114;2022-11-04T06:07:45;100455.16;;;7.56;100.00
59170;BME280;52474;52.236;5.114;2022-11-04T06:10:10;100450.63;;;7.46;100.00
59170;BME280;52474;52.236;5.114;2022-11-04T06:12:36;100444.84;;;7.52;100.00
59170;BME280;52474;52.236;5.114;2022-11-04T06:15:02;100429.41;;;7.48;100.00
59170;BME280;52474;52.236;5.114;2022-11-04T06:17:28;100443.66;;;7.45;100.00
59170;BME280;52474;52.236;5.114;2022-11-04T06:19:54;100452.88;;;7.40;100.00
59170;BME280;52474;52.236;5.114;2022-11-04T06:22:19;100440.19;;;7.22;100.00
59170;BME280;52474;52.236;5.114;2022-11-04T06:24:45;100453.84;;;7.16;100.00
59170;BME280;52474;52.236;5.114;2022-11-04T06:27:11;100452.84;;;7.06;100.00
59170;BME280;52474;52.236;5.114;2022-11-04T06:29:37;100453.78;;;6.94;100.00
59170;BME280;52474;52.236;5.114;2022-11-04T06:32:06;100473.31;;;6.91;100.00
59170;BME280;52474;52.236;5.114;2022-11-04T06:34:32;100471.06;;;6.98;100.00
59170;BME280;52474;52.236;5.114;2022-11-04T06:36:58;100453.91;;;6.81;100.00
59170;BME280;52474;52.236;5.114;2022-11-04T06:39:24;100485.28;;;6.95;100.00
59170;BME280;52474;52.236;5.114;2022-11-04T06:41:50;100429.69;;;6.64;100.00
59170;BME280;52474;52.236;5.114;2022-11-04T06:44:22;100489.59;;;6.96;100.00
59170;BME280;52474;52.236;5.114;2022-11-04T06:46:48;100485.38;;;6.94;100.00
59170;BME280;52474;52.236;5.114;2022-11-04T06:49:16;100482.16;;;7.01;100.00
59170;BME280;52474;52.236;5.114;2022-11-04T06:51:43;100502.44;;;7.23;100.00
59170;BME280;52474;52.236;5.114;2022-11-04T06:54:09;100464.84;;;7.10;100.00
59170;BME280;52474;52.236;5.114;2022-11-04T06:56:35;100509.53;;;7.34;100.00
59170;BME280;52474;52.236;5.114;2022-11-04T06:59:02;100506.53;;;7.39;100.00
59170;BME280;52474;52.236;5.114;2022-11-04T07:01:32;100500.31;;;7.40;100.00
59170;BME280;52474;52.236;5.114;2022-11-04T07:03:59;100502.59;;;7.44;100.00
59170;BME280;52474;52.236;5.114;2022-11-04T07:06:26;100513.34;;;7.52;100.00
59170;BME280;52474;52.236;5.114;2022-11-04T07:08:56;100501.63;;;7.45;100.00
59170;BME280;52474;52.236;5.114;2022-11-04T07:11:22;100520.56;;;7.62;100.00
59170;BME280;52474;52.236;5.114;2022-11-04T07:13:49;100535.91;;;7.68;100.00
59170;BME280;52474;52.236;5.114;2022-11-04T07:16:16;100540.22;;;7.80;100.00
59170;BME280;52474;52.236;5.114;2022-11-04T07:18:42;100532.78;;;7.74;100.00
59170;BME280;52474;52.236;5.114;2022-11-04T07:21:08;100532.31;;;7.80;100.00
59170;BME280;52474;52.236;5.114;2022-11-04T07:23:34;100528.00;;;7.68;100.00
59170;BME280;52474;52.236;5.114;2022-11-04T07:26:01;100532.78;;;7.85;100.00
59170;BME280;52474;52.236;5.114;2022-11-04T07:28:28;100541.75;;;7.94;100.00
59170;BME280;52474;52.236;5.114;2022-11-04T07:30:55;100545.69;;;8.00;100.00
59170;BME280;52474;52.236;5.114;2022-11-04T07:33:21;100526.53;;;7.75;100.00
59170;BME280;52474;52.236;5.114;2022-11-04T07:35:47;100557.34;;;7.86;100.00
59170;BME280;52474;52.236;5.114;2022-11-04T07:38:13;100545.09;;;7.85;100.00
59170;BME280;52474;52.236;5.114;2022-11-04T07:40:39;100561.19;;;7.93;100.00
59170;BME280;52474;52.236;5.114;2022-11-04T07:43:05;100561.97;;;8.16;100.00
59170;BME280;52474;52.236;5.114;2022-11-04T07:45:36;100580.75;;;8.34;100.00
59170;BME280;52474;52.236;5.114;2022-11-04T07:48:02;100583.72;;;8.63;100.00
59170;BME280;52474;52.236;5.114;2022-11-04T07:50:27;100595.81;;;8.77;100.00
59170;BME280;52474;52.236;5.114;2022-11-04T07:52:53;100570.50;;;8.74;100.00
59170;BME280;52474;52.236;5.114;2022-11-04T07:55:20;100589.78;;;9.07;100.00
59170;BME280;52474;52.236;5.114;2022-11-04T07:57:46;100587.03;;;9.09;100.00
59170;BME280;52474;52.236;5.114;2022-11-04T08:00:13;100585.75;;;9.24;100.00
59170;BME280;52474;52.236;5.114;2022-11-04T08:02:41;100588.34;;;9.35;100.00
59170;BME280;52474;52.236;5.114;2022-11-04T08:05:09;100578.97;;;9.52;100.00
59170;BME280;52474;52.236;5.114;2022-11-04T08:07:34;100594.50;;;9.66;100.00
59170;BME280;52474;52.236;5.114;2022-11-04T08:10:00;100590.41;;;9.83;100.00
59170;BME280;52474;52.236;5.114;2022-11-04T08:12:26;100584.41;;;9.81;100.00
59170;BME280;52474;52.236;5.114;2022-11-04T08:14:52;100586.25;;;10.31;100.00
59170;BME280;52474;52.236;5.114;2022-11-04T08:17:18;100567.28;;;10.26;100.00
59170;BME280;52474;52.236;5.114;2022-11-04T08:19:44;100582.50;;;10.34;100.00
59170;BME280;52474;52.236;5.114;2022-11-04T08:22:12;100568.47;;;10.43;100.00
59170;BME280;52474;52.236;5.114;2022-11-04T08:24:38;100588.53;;;10.55;100.00
59170;BME280;52474;52.236;5.114;2022-11-04T08:27:05;100601.97;;;11.02;100.00
59170;BME280;52474;52.236;5.114;2022-11-04T08:29:35;100594.84;;;10.64;100.00
59170;BME280;52474;52.236;5.114;2022-11-04T08:32:02;100611.84;;;11.10;100.00
59170;BME280;52474;52.236;5.114;2022-11-04T08:34:28;100590.41;;;10.74;100.00
59170;BME280;52474;52.236;5.114;2022-11-04T08:36:54;100611.59;;;10.74;100.00
59170;BME280;52474;52.236;5.114;2022-11-04T08:39:22;100595.69;;;10.64;100.00
59170;BME280;52474;52.236;5.114;2022-11-04T08:41:48;100618.28;;;10.78;100.00
59170;BME280;52474;52.236;5.114;2022-11-04T08:44:15;100620.78;;;10.80;100.00
59170;BME280;52474;52.236;5.114;2022-11-04T08:46:43;100625.25;;;10.89;100.00
59170;BME280;52474;52.236;5.114;2022-11-04T08:49:09;100625.25;;;10.79;100.00
59170;BME280;52474;52.236;5.114;2022-11-04T08:51:38;100632.63;;;10.85;100.00
59170;BME280;52474;52.236;5.114;2022-11-04T08:54:05;100627.50;;;11.03;100.00
59170;BME280;52474;52.236;5.114;2022-11-04T08:56:34;100624.53;;;11.45;100.00
59170;BME280;52474;52.236;5.114;2022-11-04T08:59:00;100617.16;;;11.29;100.00
59170;BME280;52474;52.236;5.114;2022-11-04T09:01:28;100600.81;;;11.44;100.00
59170;BME280;52474;52.236;5.114;2022-11-04T09:03:54;100607.91;;;11.53;100.00
59170;BME280;52474;52.236;5.114;2022-11-04T09:06:23;100612.78;;;11.67;100.00
59170;BME280;52474;52.236;5.114;2022-11-04T09:08:49;100612.13;;;11.36;100.00
59170;BME280;52474;52.236;5.114;2022-11-04T09:11:19;100641.66;;;11.70;100.00
59170;BME280;52474;52.236;5.114;2022-11-04T09:13:44;100621.94;;;11.92;100.00
59170;BME280;52474;52.236;5.114;2022-11-04T09:16:12;100639.41;;;12.22;100.00
59170;BME280;52474;52.236;5.114;2022-11-04T09:18:38;100639.97;;;11.79;100.00
59170;BME280;52474;52.236;5.114;2022-11-04T09:21:06;100632.75;;;12.18;100.00
59170;BME280;52474;52.236;5.114;2022-11-04T09:23:32;100634.09;;;12.22;100.00
59170;BME280;52474;52.236;5.114;2022-11-04T09:26:03;100626.44;;;12.19;100.00
59170;BME280;52474;52.236;5.114;2022-11-04T09:28:29;100644.38;;;12.35;100.00
59170;BME280;52474;52.236;5.114;2022-11-04T09:30:55;100642.56;;;11.98;100.00
59170;BME280;52474;52.236;5.114;2022-11-04T09:33:21;100632.13;;;12.24;100.00
59170;BME280;52474;52.236;5.114;2022-11-04T09:35:56;100635.56;;;12.35;100.00
59170;BME280;52474;52.236;5.114;2022-11-04T09:38:23;100651.63;;;12.43;100.00
59170;BME280;52474;52.236;5.114;2022-11-04T09:40:50;100648.50;;;12.48;100.00
59170;BME280;52474;52.236;5.114;2022-11-04T09:43:42;100669.69;;;12.85;100.00
59170;BME280;52474;52.236;5.114;2022-11-04T09:46:12;100662.41;;;15.04;100.00
59170;BME280;52474;52.236;5.114;2022-11-04T09:48:48;100664.19;;;14.79;100.00
59170;BME280;52474;52.236;5.114;2022-11-04T09:51:20;100652.09;;;19.45;100.00
59170;BME280;52474;52.236;5.114;2022-11-04T09:53:52;100656.16;;;20.61;100.00
59170;BME280;52474;52.236;5.114;2022-11-04T09:56:23;100660.41;;;21.03;100.00
59170;BME280;52474;52.236;5.114;2022-11-04T09:58:50;100669.47;;;24.56;100.00
59170;BME280;52474;52.236;5.114;2022-11-04T10:01:27;100676.66;;;21.50;100.00
59170;BME280;52474;52.236;5.114;2022-11-04T10:04:07;100674.28;;;24.54;100.00
59170;BME280;52474;52.236;5.114;2022-11-04T10:18:06;100707.03;;;16.81;100.00
59170;BME280;52474;52.236;5.114;2022-11-04T10:21:04;100707.75;;;16.19;100.00
59170;BME280;52474;52.236;5.114;2022-11-04T10:23:42;100724.63;;;16.27;100.00
59170;BME280;52474;52.236;5.114;2022-11-04T10:28:44;100719.41;;;15.03;100.00
59170;BME280;52474;52.236;5.114;2022-11-04T10:31:19;100728.59;;;14.58;100.00
59170;BME280;52474;52.236;5.114;2022-11-04T10:33:51;100738.34;;;14.84;100.00
59170;BME280;52474;52.236;5.114;2022-11-04T10:36:19;100729.97;;;14.62;100.00
59170;BME280;52474;52.236;5.114;2022-11-04T10:38:55;100751.44;;;14.60;100.00
59170;BME280;52474;52.236;5.114;2022-11-04T10:43:55;100745.88;;;14.88;100.00
59170;BME280;52474;52.236;5.114;2022-11-04T10:51:35;100752.56;;;15.00;100.00
59170;BME280;52474;52.236;5.114;2022-11-04T10:54:01;100758.81;;;15.25;100.00
59170;BME280;52474;52.236;5.114;2022-11-04T10:56:30;100752.16;;;18.07;100.00
59170;BME280;52474;52.236;5.114;2022-11-04T10:59:08;100745.25;;;22.34;100.00
59170;BME280;52474;52.236;5.114;2022-11-04T11:01:47;100733.66;;;21.47;100.00
59170;BME280;52474;52.236;5.114;2022-11-04T11:04:23;100733.31;;;20.95;100.00
59170;BME280;52474;52.236;5.114;2022-11-04T11:06:52;100733.94;;;24.04;100.00
59170;BME280;52474;52.236;5.114;2022-11-04T11:09:21;100738.34;;;20.35;100.00
59170;BME280;52474;52.236;5.114;2022-11-04T11:14:38;100763.31;;;15.33;100.00
59170;BME280;52474;52.236;5.114;2022-11-04T11:17:23;100755.72;;;15.71;100.00
59170;BME280;52474;52.236;5.114;2022-11-04T11:22:40;100761.41;;;14.06;100.00
59170;BME280;52474;52.236;5.114;2022-11-04T11:25:30;100792.38;;;13.89;100.00
59170;BME280;52474;52.236;5.114;2022-11-04T11:30:28;100792.38;;;15.44;100.00
59170;BME280;52474;52.236;5.114;2022-11-04T11:35:31;100789.72;;;16.99;100.00
59170;BME280;52474;52.236;5.114;2022-11-04T11:37:59;100788.69;;;16.44;100.00
59170;BME280;52474;52.236;5.114;2022-11-04T11:40:36;100775.09;;;16.78;100.00
59170;BME280;52474;52.236;5.114;2022-11-04T11:43:03;100783.69;;;17.59;100.00
59170;BME280;52474;52.236;5.114;2022-11-04T11:45:31;100788.16;;;18.72;100.00
59170;BME280;52474;52.236;5.114;2022-11-04T11:47:57;100778.25;;;21.89;100.00
59170;BME280;52474;52.236;5.114;2022-11-04T11:50:29;100792.81;;;18.63;100.00
59170;BME280;52474;52.236;5.114;2022-11-04T11:53:18;100787.66;;;17.09;100.00
59170;BME280;52474;52.236;5.114;2022-11-04T11:55:53;100792.75;;;16.07;100.00
59170;BME280;52474;52.236;5.114;2022-11-04T12:01:07;100803.13;;;16.90;100.00
59170;BME280;52474;52.236;5.114;2022-11-04T12:03:46;100789.25;;;18.48;100.00
59170;BME280;52474;52.236;5.114;2022-11-04T12:14:23;100806.00;;;18.35;100.00
59170;BME280;52474;52.236;5.114;2022-11-04T12:17:04;100796.75;;;18.67;100.00
59170;BME280;52474;52.236;5.114;2022-11-04T12:25:15;100832.88;;;14.89;100.00
59170;BME280;52474;52.236;5.114;2022-11-04T12:30:20;100821.59;;;14.69;100.00
59170;BME280;52474;52.236;5.114;2022-11-04T12:33:17;100836.19;;;14.91;100.00
59170;BME280;52474;52.236;5.114;2022-11-04T12:44:31;100875.56;;;13.56;100.00
59170;BME280;52474;52.236;5.114;2022-11-04T12:47:19;100880.81;;;13.47;100.00
59170;BME280;52474;52.236;5.114;2022-11-04T12:52:56;100870.41;;;13.54;100.00
59170;BME280;52474;52.236;5.114;2022-11-04T12:55:40;100878.03;;;13.02;100.00
59170;BME280;52474;52.236;5.114;2022-11-04T13:00:56;100887.25;;;14.08;100.00
59170;BME280;52474;52.236;5.114;2022-11-04T13:03:30;100867.75;;;14.26;100.00
59170;BME280;52474;52.236;5.114;2022-11-04T13:08:45;100888.03;;;14.89;100.00
59170;BME280;52474;52.236;5.114;2022-11-04T13:11:18;100901.56;;;14.69;100.00
59170;BME280;52474;52.236;5.114;2022-11-04T13:14:13;100917.81;;;13.68;100.00
59170;BME280;52474;52.236;5.114;2022-11-04T13:16:41;100904.94;;;12.89;100.00
59170;BME280;52474;52.236;5.114;2022-11-04T13:19:29;100924.63;;;12.39;100.00
59170;BME280;52474;52.236;5.114;2022-11-04T13:22:15;100928.28;;;11.59;100.00
59170;BME280;52474;52.236;5.114;2022-11-04T13:24:50;100928.00;;;11.52;100.00
59170;BME280;52474;52.236;5.114;2022-11-04T13:27:23;100929.63;;;11.44;100.00
59170;BME280;52474;52.236;5.114;2022-11-04T13:29:50;100942.47;;;11.08;100.00
59170;BME280;52474;52.236;5.114;2022-11-04T13:32:32;100943.81;;;11.02;100.00
59170;BME280;52474;52.236;5.114;2022-11-04T13:38:06;100925.03;;;11.05;100.00
59170;BME280;52474;52.236;5.114;2022-11-04T13:44:00;100923.00;;;10.98;100.00
59170;BME280;52474;52.236;5.114;2022-11-04T13:46:30;100953.69;;;11.21;100.00
59170;BME280;52474;52.236;5.114;2022-11-04T13:48:58;100957.72;;;11.15;100.00
59170;BME280;52474;52.236;5.114;2022-11-04T13:51:42;100961.59;;;11.11;100.00
59170;BME280;52474;52.236;5.114;2022-11-04T13:54:32;100965.63;;;11.06;100.00
59170;BME280;52474;52.236;5.114;2022-11-04T13:57:20;100965.56;;;10.96;100.00
59170;BME280;52474;52.236;5.114;2022-11-04T14:02:49;100980.22;;;10.79;100.00
59170;BME280;52474;52.236;5.114;2022-11-04T14:18:41;100993.44;;;10.58;100.00
59170;BME280;52474;52.236;5.114;2022-11-04T14:21:11;100985.84;;;10.65;100.00
59170;BME280;52474;52.236;5.114;2022-11-04T14:23:40;100996.50;;;10.74;100.00
59170;BME280;52474;52.236;5.114;2022-11-04T14:26:08;100993.28;;;10.71;100.00
59170;BME280;52474;52.236;5.114;2022-11-04T14:28:36;101003.09;;;10.80;100.00
59170;BME280;52474;52.236;5.114;2022-11-04T14:31:06;101010.41;;;10.88;100.00
59170;BME280;52474;52.236;5.114;2022-11-04T14:33:54;101013.53;;;10.93;100.00
59170;BME280;52474;52.236;5.114;2022-11-04T14:36:26;101001.59;;;10.66;100.00
59170;BME280;52474;52.236;5.114;2022-11-04T14:44:34;101018.34;;;10.67;100.00
59170;BME280;52474;52.236;5.114;2022-11-04T14:47:17;101038.06;;;10.95;100.00
59170;BME280;52474;52.236;5.114;2022-11-04T14:49:48;101039.03;;;10.94;100.00
59170;BME280;52474;52.236;5.114;2022-11-04T14:52:36;101041.94;;;10.91;100.00
59170;BME280;52474;52.236;5.114;2022-11-04T14:57:46;101041.34;;;10.66;100.00
59170;BME280;52474;52.236;5.114;2022-11-04T15:00:36;101045.53;;;10.69;100.00
59170;BME280;52474;52.236;5.114;2022-11-04T15:03:06;101052.06;;;10.65;100.00
59170;BME280;52474;52.236;5.114;2022-11-04T15:05:38;101045.94;;;10.53;100.00
59170;BME280;52474;52.236;5.114;2022-11-04T15:08:24;101062.50;;;10.34;100.00
59170;BME280;52474;52.236;5.114;2022-11-04T15:10:52;101060.09;;;10.31;100.00
59170;BME280;52474;52.236;5.114;2022-11-04T15:13:21;101056.38;;;10.22;100.00
59170;BME280;52474;52.236;5.114;2022-11-04T15:15:47;101072.50;;;10.30;100.00